Time;durP1;ratioP1;P1;durP2;ratioP2;P2;SDS_P1;SDS_P2;PMS_P1;PMS_P2;Temp;Humidity;BMP_temperature;BMP_pressure;BME280_temperature;BME280_humidity;BME280_pressure;Samples;Min_cycle;Max_cycle;Signal;HPM_P1;HPM_P2
2023/06/23 00:01:45;;;;;;;18.70;11.03;;;16.90;99.90;;;;;;5016489;28;20418;-56
2023/06/23 00:04:10;;;;;;;13.00;10.17;;;16.90;99.90;;;;;;5016312;28;20270;-56
2023/06/23 00:06:36;;;;;;;14.67;10.57;;;16.80;99.90;;;;;;5016625;28;20427;-56
2023/06/23 00:09:07;;;;;;;17.70;11.17;;;16.90;99.90;;;;;;5015846;28;20183;-56
2023/06/23 00:11:33;;;;;;;16.50;10.27;;;16.90;99.90;;;;;;5016202;28;20215;-56
2023/06/23 00:13:58;;;;;;;14.97;11.10;;;16.80;99.90;;;;;;5016211;28;20832;-56
2023/06/23 00:16:25;;;;;;;17.30;10.13;;;16.80;99.90;;;;;;5015882;28;20548;-57
2023/06/23 00:18:51;;;;;;;14.17;10.33;;;16.80;99.90;;;;;;5016139;28;20241;-56
2023/06/23 00:21:16;;;;;;;16.73;11.07;;;16.80;99.90;;;;;;5015787;28;20785;-57
2023/06/23 00:23:42;;;;;;;14.30;10.20;;;16.80;99.90;;;;;;5016110;28;20271;-57
2023/06/23 00:26:07;;;;;;;14.87;10.53;;;16.80;99.90;;;;;;5016116;28;20240;-56
2023/06/23 00:28:34;;;;;;;12.97;10.87;;;16.80;99.90;;;;;;5016220;28;20515;-55
2023/06/23 00:31:00;;;;;;;15.80;10.40;;;16.80;99.90;;;;;;5016007;28;20222;-56
2023/06/23 00:33:26;;;;;;;15.63;10.33;;;16.90;99.90;;;;;;5015779;28;20476;-57
2023/06/23 00:35:51;;;;;;;18.47;11.13;;;16.90;99.90;;;;;;5014853;28;20278;-56
2023/06/23 00:38:17;;;;;;;14.37;10.20;;;16.90;99.90;;;;;;5015351;28;20187;-56
2023/06/23 00:40:42;;;;;;;17.40;10.63;;;16.80;99.90;;;;;;5015614;28;20185;-57
2023/06/23 00:43:08;;;;;;;21.00;12.60;;;16.90;99.90;;;;;;5016086;28;20191;-56
2023/06/23 00:45:34;;;;;;;20.07;11.40;;;16.90;99.90;;;;;;5015598;28;20502;-56
2023/06/23 00:48:03;;;;;;;17.87;10.83;;;16.90;99.90;;;;;;5015662;28;20233;-57
2023/06/23 00:50:30;;;;;;;13.40;10.80;;;16.90;99.90;;;;;;5015402;28;20590;-56
2023/06/23 00:52:56;;;;;;;16.33;11.07;;;16.90;99.90;;;;;;5015278;28;20480;-56
2023/06/23 00:55:26;;;;;;;14.90;11.70;;;16.90;99.90;;;;;;5015130;28;20975;-56
2023/06/23 00:57:54;;;;;;;14.20;11.40;;;16.90;99.90;;;;;;5015096;28;20411;-56
2023/06/23 01:00:21;;;;;;;16.73;11.90;;;16.90;99.90;;;;;;5015348;28;20417;-56
2023/06/23 01:02:49;;;;;;;15.80;11.70;;;16.80;99.90;;;;;;5015725;28;20449;-57
2023/06/23 01:05:27;;;;;;;16.70;11.70;;;16.80;99.90;;;;;;5015486;28;20416;-57
2023/06/23 01:08:19;;;;;;;19.03;12.57;;;16.80;99.90;;;;;;5015345;28;20469;-56
2023/06/23 01:10:57;;;;;;;15.80;11.93;;;16.80;99.90;;;;;;5015131;28;20500;-56
2023/06/23 01:13:33;;;;;;;18.80;12.60;;;16.80;99.90;;;;;;5014822;28;20428;-57
2023/06/23 01:16:08;;;;;;;16.73;12.40;;;16.80;99.90;;;;;;5014804;28;20420;-56
2023/06/23 01:19:09;;;;;;;17.37;12.57;;;16.80;99.90;;;;;;5015305;28;20499;-56
2023/06/23 01:22:12;;;;;;;18.07;12.50;;;16.80;99.90;;;;;;5014831;28;20405;-56
2023/06/23 01:25:15;;;;;;;17.10;11.70;;;16.80;99.90;;;;;;5014283;28;20432;-56
2023/06/23 01:28:03;;;;;;;15.87;12.10;;;16.80;99.90;;;;;;5014934;28;20421;-56
2023/06/23 01:30:31;;;;;;;16.27;12.90;;;16.70;99.90;;;;;;5014876;28;20464;-56
2023/06/23 01:33:06;;;;;;;19.33;11.73;;;16.70;99.90;;;;;;5014907;28;20509;-57
2023/06/23 01:35:38;;;;;;;18.33;12.07;;;16.70;99.90;;;;;;5014631;28;20400;-55
2023/06/23 01:38:10;;;;;;;16.47;12.50;;;16.70;99.90;;;;;;5014411;28;20890;-56
2023/06/23 01:40:37;;;;;;;14.20;11.53;;;16.70;99.90;;;;;;5014464;28;20406;-56
2023/06/23 01:43:06;;;;;;;14.00;11.73;;;16.70;99.90;;;;;;5014614;28;20500;-56
2023/06/23 01:45:33;;;;;;;19.73;12.30;;;16.70;99.90;;;;;;5014734;28;20452;-56
2023/06/23 01:48:03;;;;;;;17.40;12.23;;;16.70;99.90;;;;;;5013897;28;20424;-56
2023/06/23 01:50:31;;;;;;;17.40;12.33;;;16.70;99.90;;;;;;5014488;28;20971;-56
2023/06/23 01:52:58;;;;;;;15.43;11.53;;;16.70;99.90;;;;;;5014107;28;20477;-56
2023/06/23 01:55:25;;;;;;;18.23;12.87;;;16.60;99.90;;;;;;5014374;28;20475;-56
2023/06/23 01:57:53;;;;;;;18.87;12.33;;;16.60;99.90;;;;;;5014167;28;20998;-56
2023/06/23 02:00:22;;;;;;;17.50;11.60;;;16.60;99.90;;;;;;5014352;28;20499;-56
2023/06/23 02:02:50;;;;;;;16.13;12.10;;;16.60;99.90;;;;;;5014404;28;20436;-56
2023/06/23 02:05:18;;;;;;;18.30;12.33;;;16.60;99.90;;;;;;5014499;28;20422;-56
2023/06/23 02:07:46;;;;;;;16.20;12.20;;;16.60;99.90;;;;;;5014554;28;20420;-56
2023/06/23 02:10:15;;;;;;;13.87;11.50;;;16.50;99.90;;;;;;5014355;28;20472;-56
2023/06/23 02:12:43;;;;;;;13.17;10.30;;;16.50;99.90;;;;;;5014139;28;20432;-56
2023/06/23 02:15:10;;;;;;;18.70;10.30;;;16.50;99.90;;;;;;5014029;28;20865;-55
2023/06/23 02:17:36;;;;;;;13.77;10.30;;;16.50;99.90;;;;;;5014282;28;20429;-56
2023/06/23 02:20:12;;;;;;;15.17;10.90;;;16.40;99.90;;;;;;5013995;28;20424;-57
2023/06/23 02:22:38;;;;;;;12.53;10.57;;;16.50;99.90;;;;;;5014154;28;20465;-56
2023/06/23 02:25:05;;;;;;;13.83;10.97;;;16.50;99.90;;;;;;5014121;28;20411;-57
2023/06/23 02:27:31;;;;;;;12.63;10.60;;;16.40;99.90;;;;;;5013955;28;20464;-57
2023/06/23 02:29:58;;;;;;;12.73;10.70;;;16.40;99.90;;;;;;5014468;28;20416;-56
2023/06/23 02:32:25;;;;;;;15.87;10.87;;;16.40;99.90;;;;;;5014006;28;20511;-57
2023/06/23 02:34:51;;;;;;;12.87;10.97;;;16.40;99.90;;;;;;5014028;28;20473;-55
2023/06/23 02:37:20;;;;;;;15.57;12.00;;;16.40;99.90;;;;;;5013992;28;20420;-56
2023/06/23 02:39:53;;;;;;;15.97;11.33;;;16.30;99.90;;;;;;5014134;28;20181;-56
2023/06/23 02:42:22;;;;;;;14.30;10.67;;;16.30;99.90;;;;;;5013678;28;21009;-56
2023/06/23 02:45:01;;;;;;;15.47;11.40;;;16.20;99.90;;;;;;5014298;28;20425;-56
2023/06/23 02:47:29;;;;;;;11.17;9.20;;;16.20;99.90;;;;;;5014247;28;20405;-56
2023/06/23 02:50:01;;;;;;;14.13;9.97;;;16.20;99.90;;;;;;5013623;28;20507;-57
2023/06/23 02:52:29;;;;;;;9.53;8.53;;;16.10;99.90;;;;;;5013786;28;20476;-57
2023/06/23 02:54:57;;;;;;;9.60;7.43;;;16.10;99.90;;;;;;5013976;28;20412;-58
2023/06/23 02:57:24;;;;;;;9.30;7.67;;;16.10;99.90;;;;;;5013987;28;20494;-56
2023/06/23 02:59:53;;;;;;;9.00;8.10;;;16.00;99.90;;;;;;5017322;28;20431;-56
2023/06/23 03:02:25;;;;;;;13.00;8.13;;;15.90;99.90;;;;;;5017528;28;20420;-56
2023/06/23 03:04:52;;;;;;;10.93;8.90;;;15.90;99.90;;;;;;5017620;28;20868;-56
2023/06/23 03:07:18;;;;;;;11.80;8.93;;;15.80;99.90;;;;;;5017718;28;20423;-56
2023/06/23 03:09:44;;;;;;;15.93;9.60;;;15.80;99.90;;;;;;5017461;28;20412;-57
2023/06/23 03:12:10;;;;;;;12.83;8.57;;;15.80;99.90;;;;;;5017046;28;20643;-56
2023/06/23 03:14:37;;;;;;;11.73;9.67;;;15.80;99.90;;;;;;5017067;28;20436;-55
2023/06/23 03:17:25;;;;;;;10.70;8.90;;;15.90;99.90;;;;;;5017442;28;20755;-57
2023/06/23 03:20:00;;;;;;;13.20;8.80;;;15.90;99.90;;;;;;5017455;28;20408;-57
2023/06/23 03:22:54;;;;;;;11.53;8.47;;;15.90;99.90;;;;;;5017522;28;20827;-55
2023/06/23 03:25:28;;;;;;;11.97;8.23;;;15.80;99.90;;;;;;5016573;28;20916;-57
2023/06/23 03:27:59;;;;;;;10.93;8.40;;;15.80;99.90;;;;;;5017518;28;20405;-55
2023/06/23 03:30:30;;;;;;;9.90;8.40;;;15.80;99.90;;;;;;5017228;28;20473;-57
2023/06/23 03:33:01;;;;;;;9.63;7.77;;;15.80;99.90;;;;;;5017147;28;20409;-56
2023/06/23 03:35:32;;;;;;;9.83;7.40;;;15.80;99.90;;;;;;5016967;28;20809;-56
2023/06/23 03:38:01;;;;;;;15.03;7.40;;;15.70;99.90;;;;;;5017041;28;20406;-57
2023/06/23 03:40:31;;;;;;;10.33;7.67;;;15.70;99.90;;;;;;5016842;28;20938;-57
2023/06/23 03:43:05;;;;;;;9.93;7.30;;;15.70;99.90;;;;;;5016916;28;20893;-56
2023/06/23 03:45:34;;;;;;;9.40;7.47;;;15.70;99.90;;;;;;5016893;28;20930;-57
2023/06/23 03:48:03;;;;;;;9.37;7.17;;;15.70;99.90;;;;;;5016864;28;20430;-56
2023/06/23 03:50:33;;;;;;;8.97;6.87;;;15.70;99.90;;;;;;5016245;28;20475;-57
2023/06/23 03:53:02;;;;;;;11.73;7.63;;;15.80;99.90;;;;;;5016318;28;20484;-57
2023/06/23 03:55:32;;;;;;;9.00;7.37;;;15.70;99.90;;;;;;5016664;28;20821;-57
2023/06/23 03:58:02;;;;;;;8.00;6.80;;;15.70;99.90;;;;;;5016199;28;20428;-58
2023/06/23 04:00:31;;;;;;;9.70;7.30;;;15.80;99.90;;;;;;5016250;28;20906;-57
2023/06/23 04:02:59;;;;;;;10.63;7.87;;;15.70;99.90;;;;;;5016208;28;20948;-57
2023/06/23 04:05:29;;;;;;;8.13;7.07;;;15.70;99.90;;;;;;5016453;28;20433;-56
2023/06/23 04:07:56;;;;;;;11.87;7.73;;;15.80;99.90;;;;;;5016473;28;20778;-56
2023/06/23 04:10:22;;;;;;;12.03;7.10;;;15.80;99.90;;;;;;5014952;28;20814;-56
2023/06/23 04:12:50;;;;;;;9.80;7.10;;;15.90;99.90;;;;;;5016238;28;20428;-58
2023/06/23 04:15:18;;;;;;;8.57;7.40;;;15.90;99.90;;;;;;5016321;28;20418;-56
2023/06/23 04:17:45;;;;;;;9.33;8.07;;;16.00;99.90;;;;;;5015842;28;20424;-57
2023/06/23 04:20:13;;;;;;;16.80;7.50;;;16.00;99.90;;;;;;5016078;28;20424;-55
2023/06/23 04:22:42;;;;;;;13.37;6.80;;;16.00;99.90;;;;;;5016117;28;20830;-57
2023/06/23 04:25:09;;;;;;;8.53;7.13;;;16.10;99.90;;;;;;5016189;28;20740;-56
2023/06/23 04:27:37;;;;;;;8.03;7.17;;;16.10;99.90;;;;;;5015864;28;20414;-56
2023/06/23 04:30:05;;;;;;;11.63;7.57;;;16.10;99.90;;;;;;5015627;28;20429;-56
2023/06/23 04:32:32;;;;;;;9.13;8.13;;;16.10;99.90;;;;;;5015940;28;20414;-56
2023/06/23 04:34:58;;;;;;;12.63;7.80;;;16.20;99.90;;;;;;5015808;28;20441;-57
2023/06/23 04:37:31;;;;;;;9.07;7.40;;;16.30;99.90;;;;;;5015761;28;20894;-56
2023/06/23 04:40:10;;;;;;;10.10;8.07;;;16.20;99.90;;;;;;5016295;28;20227;-57
2023/06/23 04:42:53;;;;;;;12.43;7.93;;;16.20;99.90;;;;;;5016082;28;20458;-55
2023/06/23 04:45:24;;;;;;;8.63;7.50;;;16.10;99.90;;;;;;5015694;28;20889;-55
2023/06/23 04:47:56;;;;;;;9.17;8.10;;;16.10;99.90;;;;;;5015763;28;20896;-56
2023/06/23 04:50:25;;;;;;;11.03;7.07;;;16.10;99.90;;;;;;5015509;28;20497;-57
2023/06/23 04:52:55;;;;;;;10.53;8.30;;;16.10;99.90;;;;;;5015078;28;20486;-56
2023/06/23 04:55:29;;;;;;;7.90;6.83;;;16.00;99.90;;;;;;5015444;28;20409;-57
2023/06/23 04:57:57;;;;;;;11.17;7.73;;;16.10;99.90;;;;;;5015654;28;20912;-57
2023/06/23 05:00:24;;;;;;;10.77;8.27;;;16.00;99.90;;;;;;5015790;28;20428;-56
2023/06/23 05:02:52;;;;;;;12.53;8.57;;;16.10;99.90;;;;;;5015716;28;20499;-57
2023/06/23 05:05:23;;;;;;;9.83;8.07;;;16.10;99.90;;;;;;5015648;28;20814;-56
2023/06/23 05:07:51;;;;;;;11.50;8.27;;;16.10;99.90;;;;;;5015666;28;20423;-56
2023/06/23 05:10:19;;;;;;;11.10;8.03;;;16.10;99.90;;;;;;5015011;28;20473;-56
2023/06/23 05:12:47;;;;;;;14.20;8.10;;;16.10;99.90;;;;;;5015151;28;20426;-56
2023/06/23 05:15:15;;;;;;;10.30;8.80;;;16.10;99.90;;;;;;5015102;28;20504;-56
2023/06/23 05:17:44;;;;;;;12.03;8.73;;;16.20;99.90;;;;;;5014973;28;20439;-56
2023/06/23 05:20:11;;;;;;;10.80;7.87;;;16.20;99.90;;;;;;5014853;28;20954;-56
2023/06/23 05:22:38;;;;;;;9.70;7.23;;;16.20;99.90;;;;;;5014876;28;20436;-56
2023/06/23 05:25:06;;;;;;;10.63;7.13;;;16.20;99.90;;;;;;5015015;28;20817;-56
2023/06/23 05:27:34;;;;;;;10.73;8.00;;;16.30;99.90;;;;;;5014849;28;20952;-56
2023/06/23 05:30:01;;;;;;;8.97;7.87;;;16.30;99.90;;;;;;5014784;28;20446;-56
2023/06/23 05:32:31;;;;;;;11.23;8.50;;;16.30;99.90;;;;;;5014672;28;20421;-56
2023/06/23 05:35:01;;;;;;;11.70;8.00;;;16.30;99.90;;;;;;5014878;28;20436;-56
2023/06/23 05:37:27;;;;;;;9.60;7.93;;;16.40;99.90;;;;;;5014739;28;20420;-56
2023/06/23 05:39:55;;;;;;;8.10;7.00;;;16.50;99.90;;;;;;5014404;28;20505;-55
2023/06/23 05:42:21;;;;;;;10.27;8.17;;;16.60;99.90;;;;;;5014790;28;20430;-57
2023/06/23 05:44:46;;;;;;;11.53;7.87;;;16.70;99.90;;;;;;5014590;28;20409;-58
2023/06/23 05:47:18;;;;;;;10.70;7.97;;;16.80;99.90;;;;;;5014269;28;20177;-56
2023/06/23 05:49:45;;;;;;;9.80;8.03;;;16.80;99.90;;;;;;5014694;28;20178;-55
2023/06/23 05:52:14;;;;;;;10.00;8.07;;;16.90;99.90;;;;;;5014194;28;20837;-57
2023/06/23 05:54:44;;;;;;;10.77;7.80;;;16.90;99.90;;;;;;5014408;28;20505;-57
2023/06/23 05:57:19;;;;;;;9.87;8.00;;;17.00;99.90;;;;;;5014624;28;20507;-57
2023/06/23 05:59:48;;;;;;;9.60;7.80;;;17.00;99.90;;;;;;5014161;28;20428;-57
2023/06/23 06:02:20;;;;;;;11.83;8.23;;;17.00;99.90;;;;;;5014360;28;20433;-57
2023/06/23 06:04:50;;;;;;;10.67;8.60;;;17.10;99.90;;;;;;5014731;28;20414;-57
2023/06/23 06:07:19;;;;;;;10.83;9.30;;;17.20;99.90;;;;;;5014540;28;20409;-56
2023/06/23 06:09:46;;;;;;;14.00;9.20;;;17.20;99.90;;;;;;5014028;28;20929;-57
2023/06/23 06:12:12;;;;;;;13.23;9.77;;;17.20;99.90;;;;;;5013912;28;20892;-57
2023/06/23 06:14:39;;;;;;;11.47;9.03;;;17.30;99.90;;;;;;5014514;28;20796;-56
2023/06/23 06:17:08;;;;;;;14.53;9.00;;;17.30;99.90;;;;;;5014332;28;20472;-57
2023/06/23 06:19:37;;;;;;;15.83;9.60;;;17.40;99.90;;;;;;4996540;28;20488;-56
2023/06/23 06:22:04;;;;;;;16.50;9.60;;;17.50;99.90;;;;;;5014192;28;20779;-57
2023/06/23 06:24:31;;;;;;;13.00;10.67;;;17.50;99.90;;;;;;5014372;28;20417;-57
2023/06/23 06:27:00;;;;;;;14.17;10.50;;;17.50;99.90;;;;;;5014256;28;20425;-57
2023/06/23 06:29:27;;;;;;;13.13;9.70;;;17.60;99.90;;;;;;5014385;28;20434;-56
2023/06/23 06:31:56;;;;;;;12.80;10.40;;;17.60;99.90;;;;;;5014038;28;20504;-57
2023/06/23 06:34:24;;;;;;;18.63;10.47;;;17.60;99.90;;;;;;5017314;28;20917;-57
2023/06/23 06:36:51;;;;;;;17.33;10.60;;;17.60;99.90;;;;;;5018408;28;20808;-57
2023/06/23 06:39:17;;;;;;;14.73;11.40;;;17.60;99.90;;;;;;5017544;28;20430;-56
2023/06/23 06:41:45;;;;;;;18.00;11.77;;;17.70;99.90;;;;;;5017476;28;20429;-56
2023/06/23 06:44:10;;;;;;;16.77;12.10;;;17.70;99.90;;;;;;5017752;28;20428;-56
2023/06/23 06:46:39;;;;;;;19.30;13.23;;;17.70;99.90;;;;;;5017746;28;20769;-56
2023/06/23 06:49:05;;;;;;;19.97;13.40;;;17.70;99.90;;;;;;5017666;28;20203;-56
2023/06/23 06:51:32;;;;;;;18.63;13.20;;;17.70;99.90;;;;;;5017143;28;20468;-55
2023/06/23 06:53:57;;;;;;;19.23;13.10;;;17.80;99.90;;;;;;5016869;28;20470;-56
2023/06/23 06:56:24;;;;;;;15.40;12.27;;;17.80;99.90;;;;;;5016972;28;20528;-57
2023/06/23 06:58:50;;;;;;;18.97;12.23;;;17.80;99.90;;;;;;5017506;28;20265;-61
2023/06/23 07:01:16;;;;;;;18.63;12.40;;;17.80;99.90;;;;;;5017553;28;20425;-59
2023/06/23 07:03:42;;;;;;;15.10;11.13;;;17.80;99.90;;;;;;5017949;28;20445;-58
2023/06/23 07:06:09;;;;;;;15.90;12.03;;;17.80;99.90;;;;;;5017590;28;20411;-59
2023/06/23 07:08:34;;;;;;;16.90;11.70;;;17.80;99.90;;;;;;5017381;28;20425;-58
2023/06/23 07:11:00;;;;;;;17.47;11.70;;;17.80;99.90;;;;;;5017186;28;20528;-57
2023/06/23 07:13:26;;;;;;;22.33;12.07;;;17.80;99.90;;;;;;5017012;28;20186;-57
2023/06/23 07:15:52;;;;;;;17.40;13.00;;;17.80;99.90;;;;;;5017248;28;20198;-57
2023/06/23 07:18:17;;;;;;;18.00;12.57;;;17.70;99.90;;;;;;5016826;28;20179;-56
2023/06/23 07:20:43;;;;;;;18.00;13.20;;;17.80;99.90;;;;;;5016949;28;20274;-57
2023/06/23 07:23:09;;;;;;;15.50;12.73;;;17.80;99.90;;;;;;5016820;28;20531;-58
2023/06/23 07:25:34;;;;;;;21.93;13.07;;;17.80;99.90;;;;;;5016673;28;20190;-58
2023/06/23 07:28:00;;;;;;;21.77;14.10;;;17.90;99.90;;;;;;5017027;28;20425;-57
2023/06/23 07:30:26;;;;;;;20.87;13.50;;;18.00;99.90;;;;;;5016643;28;20663;-59
2023/06/23 07:32:52;;;;;;;20.03;12.87;;;18.00;99.90;;;;;;5016798;28;20183;-59
2023/06/23 07:35:18;;;;;;;25.50;16.00;;;18.10;99.90;;;;;;5016742;28;20533;-58
2023/06/23 07:37:44;;;;;;;21.43;15.83;;;18.10;99.90;;;;;;5016751;28;20222;-58
2023/06/23 07:40:10;;;;;;;23.40;16.83;;;18.10;99.90;;;;;;5016819;28;20520;-57
2023/06/23 07:42:35;;;;;;;21.80;15.90;;;18.20;99.90;;;;;;5016834;28;20187;-58
2023/06/23 07:45:01;;;;;;;26.63;16.77;;;18.30;99.90;;;;;;5014869;28;20910;-57
2023/06/23 07:47:27;;;;;;;27.23;15.77;;;18.30;99.90;;;;;;5016614;28;20234;-58
2023/06/23 07:49:53;;;;;;;20.60;16.47;;;18.40;99.90;;;;;;5016509;28;20422;-58
2023/06/23 07:52:18;;;;;;;22.47;17.07;;;18.50;99.90;;;;;;5016443;28;20230;-57
2023/06/23 07:54:44;;;;;;;21.63;17.07;;;18.60;99.90;;;;;;5016594;28;20525;-57
2023/06/23 07:57:11;;;;;;;20.63;16.90;;;18.70;99.90;;;;;;5016567;28;20230;-57
2023/06/23 07:59:37;;;;;;;20.63;16.20;;;18.80;99.90;;;;;;5016622;28;20583;-57
2023/06/23 08:02:03;;;;;;;20.00;16.30;;;18.90;99.90;;;;;;5016170;28;20450;-58
2023/06/23 08:04:29;;;;;;;24.73;18.87;;;19.00;99.90;;;;;;5016518;28;20197;-58
2023/06/23 08:06:54;;;;;;;25.73;20.50;;;19.10;99.90;;;;;;5016158;28;20517;-58
2023/06/23 08:09:20;;;;;;;30.60;22.80;;;19.20;99.90;;;;;;5016311;28;20184;-59
2023/06/23 08:11:46;;;;;;;24.63;15.03;;;19.30;99.90;;;;;;5016197;28;20836;-58
2023/06/23 08:14:11;;;;;;;19.80;15.00;;;19.40;99.90;;;;;;5015733;28;20187;-58
2023/06/23 08:16:37;;;;;;;19.10;15.03;;;19.50;99.90;;;;;;5015784;28;20178;-58
2023/06/23 08:19:03;;;;;;;20.57;14.67;;;19.40;99.90;;;;;;5015133;28;20329;-57
2023/06/23 08:21:30;;;;;;;26.50;14.80;;;19.40;99.90;;;;;;5014492;28;20896;-57
2023/06/23 08:23:56;;;;;;;17.77;13.80;;;19.40;99.90;;;;;;5014810;28;20626;-58
2023/06/23 08:26:22;;;;;;;19.67;15.00;;;19.40;99.90;;;;;;5015913;28;20419;-58
2023/06/23 08:28:47;;;;;;;23.33;15.10;;;19.40;99.90;;;;;;5015559;28;20418;-58
2023/06/23 08:31:13;;;;;;;21.37;15.80;;;19.40;99.90;;;;;;5015531;28;20676;-58
2023/06/23 08:33:39;;;;;;;16.60;14.07;;;19.40;99.90;;;;;;5015590;28;20210;-58
2023/06/23 08:36:05;;;;;;;22.40;15.00;;;19.40;99.90;;;;;;5015155;28;20197;-58
2023/06/23 08:38:31;;;;;;;16.20;12.67;;;19.60;99.90;;;;;;5015357;28;20506;-58
2023/06/23 08:40:57;;;;;;;19.13;13.77;;;19.50;99.90;;;;;;5015248;28;20438;-58
2023/06/23 08:43:25;;;;;;;17.50;13.63;;;19.40;99.90;;;;;;5015173;28;20274;-58
2023/06/23 08:45:55;;;;;;;22.20;13.67;;;19.40;99.90;;;;;;5014874;28;20425;-58
2023/06/23 08:48:30;;;;;;;18.27;14.20;;;19.40;99.90;;;;;;5014718;28;20766;-57
2023/06/23 08:51:00;;;;;;;18.10;13.23;;;19.40;99.90;;;;;;5015370;28;20466;-58
2023/06/23 08:53:27;;;;;;;16.20;13.50;;;19.30;99.90;;;;;;5014865;28;20552;-58
2023/06/23 08:55:54;;;;;;;19.40;14.07;;;19.40;99.90;;;;;;5014505;28;20472;-58
2023/06/23 08:58:21;;;;;;;21.23;14.90;;;19.30;99.90;;;;;;5014698;28;20456;-57
2023/06/23 09:00:49;;;;;;;18.00;14.23;;;19.40;99.90;;;;;;5015113;28;20437;-57
2023/06/23 09:03:14;;;;;;;19.90;14.33;;;19.30;99.90;;;;;;5014597;28;20419;-58
2023/06/23 09:05:41;;;;;;;21.27;14.70;;;19.30;99.90;;;;;;5015153;28;20422;-58
2023/06/23 09:08:07;;;;;;;19.60;13.73;;;19.30;99.90;;;;;;5015045;28;20237;-58
2023/06/23 09:10:33;;;;;;;19.13;13.60;;;19.40;99.90;;;;;;5014468;28;20480;-58
2023/06/23 09:13:07;;;;;;;16.20;13.00;;;19.40;99.90;;;;;;5015119;28;20423;-58
2023/06/23 09:15:34;;;;;;;20.20;14.10;;;19.30;99.90;;;;;;5015131;28;20511;-58
2023/06/23 09:18:02;;;;;;;15.33;13.10;;;19.40;99.90;;;;;;5014613;28;20573;-58
2023/06/23 09:20:30;;;;;;;18.33;13.03;;;19.50;99.90;;;;;;5014825;28;20423;-58
2023/06/23 09:22:57;;;;;;;18.70;15.13;;;19.50;99.90;;;;;;5015146;28;20445;-58
2023/06/23 09:25:47;;;;;;;20.20;14.53;;;19.60;99.90;;;;;;5014723;28;20423;-57
2023/06/23 09:28:30;;;;;;;20.40;14.97;;;19.70;99.90;;;;;;5014778;28;20914;-57
2023/06/23 09:31:06;;;;;;;18.40;13.60;;;19.80;99.90;;;;;;5014709;28;20561;-57
2023/06/23 09:33:31;;;;;;;17.70;13.50;;;19.90;99.90;;;;;;5014260;28;20472;-58
2023/06/23 09:36:02;;;;;;;18.93;13.80;;;20.00;99.90;;;;;;5014520;28;20418;-58
2023/06/23 09:38:29;;;;;;;17.47;14.60;;;20.20;99.90;;;;;;5014443;28;20194;-57
2023/06/23 09:41:01;;;;;;;19.37;14.53;;;20.40;99.90;;;;;;5014642;28;20427;-57
2023/06/23 09:43:27;;;;;;;17.27;13.77;;;20.40;99.90;;;;;;5014106;28;20411;-58
2023/06/23 09:45:52;;;;;;;16.70;13.50;;;20.50;99.90;;;;;;5014397;28;20429;-57
2023/06/23 09:48:19;;;;;;;19.67;15.33;;;20.60;99.90;;;;;;5014680;28;20271;-57
2023/06/23 09:50:45;;;;;;;22.00;14.90;;;20.60;99.90;;;;;;5013992;28;20218;-58
2023/06/23 09:53:20;;;;;;;18.53;12.87;;;20.70;99.90;;;;;;5013700;28;20477;-57
2023/06/23 09:55:45;;;;;;;16.53;13.13;;;20.90;99.90;;;;;;5013800;28;20410;-57
2023/06/23 09:58:13;;;;;;;18.40;13.20;;;21.00;99.90;;;;;;5014083;28;20421;-57
2023/06/23 10:00:39;;;;;;;16.97;13.10;;;21.10;99.90;;;;;;5014680;28;20188;-58
2023/06/23 10:03:04;;;;;;;16.73;13.20;;;21.20;99.90;;;;;;5014187;28;20475;-57
2023/06/23 10:05:34;;;;;;;17.60;13.03;;;21.20;99.90;;;;;;5014120;28;20242;-57
2023/06/23 10:08:07;;;;;;;13.20;10.80;;;21.30;99.90;;;;;;5013404;28;20187;-57
2023/06/23 10:10:33;;;;;;;15.07;11.10;;;21.40;99.90;;;;;;5013918;28;20474;-57
2023/06/23 10:12:58;;;;;;;15.57;12.40;;;21.60;99.90;;;;;;5013828;28;20425;-57
2023/06/23 10:15:25;;;;;;;14.17;11.63;;;21.60;99.90;;;;;;5013633;28;21137;-57
2023/06/23 10:17:51;;;;;;;15.23;11.23;;;21.80;99.90;;;;;;5013638;28;20618;-57
2023/06/23 10:20:16;;;;;;;14.47;10.60;;;21.90;99.90;;;;;;5013911;28;20517;-57
2023/06/23 10:22:45;;;;;;;11.63;10.43;;;21.80;8.30;;;;;;5013546;28;20514;-57
2023/06/23 10:25:11;;;;;;;13.60;11.70;;;21.80;75.00;;;;;;5013630;28;20187;-57
2023/06/23 10:27:37;;;;;;;13.40;11.43;;;21.70;95.30;;;;;;5014265;28;20413;-57
2023/06/23 10:30:04;;;;;;;16.63;12.10;;;21.60;1.00;;;;;;5013577;28;20512;-57
2023/06/23 10:32:33;;;;;;;19.53;11.93;;;21.40;79.50;;;;;;5013673;28;20476;-57
2023/06/23 10:35:08;;;;;;;13.77;11.77;;;21.20;43.30;;;;;;5013589;28;20515;-57
2023/06/23 10:37:35;;;;;;;18.87;13.57;;;21.10;99.90;;;;;;5013719;28;20927;-57
2023/06/23 10:40:05;;;;;;;17.90;12.97;;;21.00;99.90;;;;;;5013527;28;20512;-57
2023/06/23 10:42:34;;;;;;;17.10;12.87;;;20.80;99.90;;;;;;5013360;28;20507;-57
2023/06/23 10:45:00;;;;;;;16.73;13.90;;;20.80;99.90;;;;;;5013367;28;20484;-58
2023/06/23 10:47:26;;;;;;;22.50;14.40;;;20.80;99.90;;;;;;5013249;28;20429;-57
2023/06/23 10:49:52;;;;;;;18.83;13.90;;;20.70;99.90;;;;;;5013507;28;20445;-57
2023/06/23 10:52:18;;;;;;;31.00;24.07;;;20.50;99.90;;;;;;5013056;28;20471;-57
2023/06/23 10:54:44;;;;;;;28.37;20.90;;;20.40;99.90;;;;;;5013717;28;20429;-57
2023/06/23 10:57:14;;;;;;;24.23;19.07;;;20.20;99.90;;;;;;5013184;28;20431;-57
2023/06/23 10:59:44;;;;;;;21.93;15.70;;;20.20;99.90;;;;;;5013170;28;20191;-57
2023/06/23 11:02:17;;;;;;;22.53;16.10;;;20.10;99.90;;;;;;5013611;28;20504;-57
2023/06/23 11:04:52;;;;;;;21.93;16.13;;;20.00;99.90;;;;;;5013567;28;20847;-57
2023/06/23 11:07:18;;;;;;;24.70;17.37;;;20.10;99.90;;;;;;5013161;28;20913;-57
2023/06/23 11:09:52;;;;;;;22.73;17.27;;;20.20;99.90;;;;;;5013160;28;20418;-57
2023/06/23 11:12:38;;;;;;;26.13;18.40;;;20.20;99.90;;;;;;5013626;28;20240;-57
2023/06/23 11:15:19;;;;;;;23.47;16.63;;;20.30;99.90;;;;;;5013233;28;20934;-57
2023/06/23 11:17:46;;;;;;;18.27;16.10;;;20.50;99.90;;;;;;5013614;28;20488;-57
2023/06/23 11:20:19;;;;;;;21.60;17.40;;;20.60;99.90;;;;;;5015701;28;20480;-57
2023/06/23 11:22:54;;;;;;;22.07;17.20;;;20.50;99.90;;;;;;5016912;28;20432;-57
2023/06/23 11:25:52;;;;;;;18.33;15.07;;;20.60;99.90;;;;;;5016399;28;20521;-58
2023/06/23 11:28:24;;;;;;;24.23;17.90;;;20.70;99.90;;;;;;5016292;28;20429;-57
2023/06/23 11:31:00;;;;;;;21.13;15.73;;;20.80;99.90;;;;;;5016810;28;20530;-57
2023/06/23 11:33:33;;;;;;;23.23;15.53;;;20.90;99.90;;;;;;5016397;28;20433;-57
2023/06/23 11:36:19;;;;;;;21.13;15.60;;;21.10;99.90;;;;;;5015797;28;20416;-57
2023/06/23 11:38:45;;;;;;;18.93;14.77;;;21.10;99.90;;;;;;5016010;28;20408;-56
2023/06/23 11:41:13;;;;;;;20.40;15.20;;;21.20;97.90;;;;;;5016053;28;20424;-56
2023/06/23 11:43:38;;;;;;;21.00;16.13;;;21.30;85.40;;;;;;5015818;28;20183;-56
2023/06/23 11:46:12;;;;;;;20.43;15.00;;;21.40;99.90;;;;;;5015847;28;20408;-57
2023/06/23 11:48:41;;;;;;;18.80;14.57;;;21.40;98.50;;;;;;5015740;28;20649;-56
2023/06/23 11:51:11;;;;;;;18.27;15.47;;;21.50;99.90;;;;;;5016071;28;21029;-57
2023/06/23 11:53:40;;;;;;;22.90;15.20;;;21.50;99.90;;;;;;5016331;28;20481;-57
2023/06/23 11:56:06;;;;;;;23.50;15.90;;;21.50;99.90;;;;;;5016418;28;20629;-56
2023/06/23 11:58:33;;;;;;;19.10;15.20;;;21.50;99.90;;;;;;5015876;28;20524;-58
2023/06/23 12:00:59;;;;;;;20.53;16.13;;;21.60;77.80;;;;;;5016531;28;20202;-58
2023/06/23 12:03:26;;;;;;;17.87;13.60;;;21.70;99.90;;;;;;5016284;28;20814;-59
2023/06/23 12:05:52;;;;;;;20.10;16.00;;;21.80;99.90;;;;;;5015982;28;20433;-59
2023/06/23 12:08:18;;;;;;;21.27;15.53;;;21.90;99.90;;;;;;5015722;28;20412;-58
2023/06/23 12:10:46;;;;;;;17.53;14.20;;;22.00;99.90;;;;;;5015476;28;20470;-59
2023/06/23 12:13:13;;;;;;;17.93;13.90;;;22.00;1.00;;;;;;5016003;28;20192;-58
2023/06/23 12:15:39;;;;;;;22.13;13.30;;;21.80;99.90;;;;;;5016019;28;20432;-59
2023/06/23 12:18:06;;;;;;;20.87;15.13;;;21.90;1.00;;;;;;5015608;28;20476;-58
2023/06/23 12:20:43;;;;;;;17.73;13.50;;;21.90;1.00;;;;;;5015973;28;20432;-58
2023/06/23 12:23:10;;;;;;;19.30;13.57;;;22.10;1.00;;;;;;5015677;28;20443;-59
2023/06/23 12:25:52;;;;;;;22.60;14.60;;;22.20;1.00;;;;;;5015248;28;20440;-58
2023/06/23 12:28:19;;;;;;;18.40;12.97;;;22.30;1.00;;;;;;5015544;28;20518;-58
2023/06/23 12:30:49;;;;;;;17.50;13.57;;;22.40;1.00;;;;;;5014413;28;20968;-58
2023/06/23 12:33:22;;;;;;;20.33;14.93;;;22.50;1.00;;;;;;5015652;28;20460;-58
2023/06/23 12:36:02;;;;;;;20.17;13.40;;;22.70;99.90;;;;;;5015479;28;20458;-58
2023/06/23 12:38:29;;;;;;;15.83;13.70;;;22.70;1.00;;;;;;5015548;28;20485;-59
2023/06/23 12:40:55;;;;;;;17.03;13.33;;;22.70;99.90;;;;;;5015503;28;20417;-58